PRIVATE WETTERSTATION BILLIGHEIM-ALLFELD                       ZURCK
Wetterdaten: Montag, 09.10.2017
Datum Zeit Temp. A. Temp. A. min Temp. A. max Feuchte A. Luftdruck Regen Wind Richtung Richtung Sonnenschein ET Solar Taupunkt Windchill Windben Empfang
09.10.2017 00:00 10,6 C 10,6 C 10,7 C 90 % 1019,1 hPa 0,0 l/m 0,0 km/h (0 Bft) N 0 0 min 0,000 mm 0 W/m 9,0 C 10,6 C 0,0 km/h (0 Bft) 100 %
09.10.2017 00:10 10,6 C 10,6 C 10,6 C 90 % 1019,2 hPa 0,0 l/m 3,2 km/h (1 Bft) W-NW 292 0 min 0,000 mm 0 W/m 9,0 C 10,6 C 9,7 km/h (2 Bft) 100 %
09.10.2017 00:20 10,6 C 10,6 C 10,6 C 90 % 1019,2 hPa 0,0 l/m 1,6 km/h (1 Bft) NW 315 0 min 0,000 mm 0 W/m 9,0 C 10,6 C 6,4 km/h (2 Bft) 100 %
09.10.2017 00:30 10,5 C 10,5 C 10,6 C 90 % 1019,2 hPa 0,0 l/m 3,2 km/h (1 Bft) W-NW 292 0 min 0,000 mm 0 W/m 8,9 C 10,5 C 14,5 km/h (3 Bft) 89 %
09.10.2017 00:40 10,4 C 10,4 C 10,5 C 90 % 1019,2 hPa 0,0 l/m 3,2 km/h (1 Bft) W-NW 292 0 min 0,000 mm 0 W/m 8,8 C 10,4 C 9,7 km/h (2 Bft) 100 %
09.10.2017 00:50 10,4 C 10,4 C 10,4 C 90 % 1019,1 hPa 0,0 l/m 1,6 km/h (1 Bft) NW 315 0 min 0,000 mm 0 W/m 8,8 C 10,4 C 8,0 km/h (2 Bft) 100 %
09.10.2017 01:00 10,3 C 10,3 C 10,4 C 90 % 1019,2 hPa 0,0 l/m 0,0 km/h (0 Bft) NW 315 0 min 0,000 mm 0 W/m 8,7 C 10,3 C 4,8 km/h (1 Bft) 100 %
09.10.2017 01:10 10,3 C 10,3 C 10,3 C 90 % 1019,2 hPa 0,0 l/m 0,0 km/h (0 Bft) W-NW 292 0 min 0,000 mm 0 W/m 8,7 C 10,3 C 8,0 km/h (2 Bft) 100 %
09.10.2017 01:20 10,3 C 10,3 C 10,3 C 90 % 1019,2 hPa 0,0 l/m 0,0 km/h (0 Bft) W-NW 292 0 min 0,000 mm 0 W/m 8,7 C 10,3 C 6,4 km/h (2 Bft) 100 %
09.10.2017 01:30 10,3 C 10,3 C 10,3 C 90 % 1019,2 hPa 0,0 l/m 0,0 km/h (0 Bft) N 0 0 min 0,000 mm 0 W/m 8,7 C 10,3 C 0,0 km/h (0 Bft) 100 %
09.10.2017 01:40 10,2 C 10,2 C 10,3 C 90 % 1019,3 hPa 0,0 l/m 0,0 km/h (0 Bft) W-NW 292 0 min 0,000 mm 0 W/m 8,6 C 10,2 C 1,6 km/h (1 Bft) 100 %
09.10.2017 01:50 10,2 C 10,2 C 10,2 C 90 % 1019,2 hPa 0,0 l/m 0,0 km/h (0 Bft) N 0 0 min 0,000 mm 0 W/m 8,6 C 10,2 C 0,0 km/h (0 Bft) 100 %
09.10.2017 02:00 10,2 C 10,2 C 10,2 C 90 % 1019,2 hPa 0,0 l/m 0,0 km/h (0 Bft) N 0 0 min 0,000 mm 0 W/m 8,6 C 10,2 C 0,0 km/h (0 Bft) 100 %
09.10.2017 02:10 10,1 C 10,1 C 10,2 C 90 % 1019,3 hPa 0,0 l/m 0,0 km/h (0 Bft) N 0 0 min 0,000 mm 0 W/m 8,5 C 10,1 C 0,0 km/h (0 Bft) 100 %
09.10.2017 02:20 10,0 C 10,0 C 10,1 C 90 % 1019,3 hPa 0,0 l/m 0,0 km/h (0 Bft) N 0 0 min 0,000 mm 0 W/m 8,4 C 10,0 C 0,0 km/h (0 Bft) 100 %
09.10.2017 02:30 9,9 C 9,9 C 10,0 C 90 % 1019,3 hPa 0,0 l/m 0,0 km/h (0 Bft) N 0 0 min 0,000 mm 0 W/m 8,3 C 9,9 C 0,0 km/h (0 Bft) 100 %
09.10.2017 02:40 9,7 C 9,7 C 9,9 C 90 % 1019,2 hPa 0,0 l/m 0,0 km/h (0 Bft) N 0 0 min 0,000 mm 0 W/m 8,1 C 9,7 C 0,0 km/h (0 Bft) 100 %
09.10.2017 02:50 9,6 C 9,6 C 9,7 C 90 % 1019,2 hPa 0,0 l/m 0,0 km/h (0 Bft) N 0 0 min 0,000 mm 0 W/m 8,0 C 9,6 C 0,0 km/h (0 Bft) 100 %
09.10.2017 03:00 9,5 C 9,5 C 9,6 C 90 % 1019,1 hPa 0,0 l/m 0,0 km/h (0 Bft) N 0 0 min 0,000 mm 0 W/m 7,9 C 9,5 C 0,0 km/h (0 Bft) 100 %
09.10.2017 03:10 9,4 C 9,4 C 9,5 C 90 % 1019,1 hPa 0,0 l/m 0,0 km/h (0 Bft) N 0 0 min 0,000 mm 0 W/m 7,8 C 9,4 C 0,0 km/h (0 Bft) 100 %
09.10.2017 03:20 9,3 C 9,3 C 9,4 C 90 % 1019,1 hPa 0,0 l/m 0,0 km/h (0 Bft) N 0 0 min 0,000 mm 0 W/m 7,7 C 9,3 C 0,0 km/h (0 Bft) 100 %
09.10.2017 03:30 9,2 C 9,2 C 9,3 C 90 % 1019,1 hPa 0,0 l/m 0,0 km/h (0 Bft) N 0 0 min 0,000 mm 0 W/m 7,6 C 9,2 C 0,0 km/h (0 Bft) 100 %
09.10.2017 03:40 9,1 C 9,1 C 9,2 C 90 % 1019,1 hPa 0,0 l/m 0,0 km/h (0 Bft) N 0 0 min 0,000 mm 0 W/m 7,5 C 9,1 C 0,0 km/h (0 Bft) 90 %
09.10.2017 03:50 9,0 C 9,0 C 9,1 C 90 % 1019,1 hPa 0,0 l/m 0,0 km/h (0 Bft) N 0 0 min 0,000 mm 0 W/m 7,4 C 9,0 C 0,0 km/h (0 Bft) 100 %
09.10.2017 04:00 8,9 C 8,9 C 9,0 C 90 % 1019,1 hPa 0,0 l/m 0,0 km/h (0 Bft) N 0 0 min 0,000 mm 0 W/m 7,4 C 8,9 C 0,0 km/h (0 Bft) 100 %
09.10.2017 04:10 8,8 C 8,8 C 8,9 C 90 % 1019,1 hPa 0,2 l/m 0,0 km/h (0 Bft) N 0 0 min 0,000 mm 0 W/m 7,3 C 8,8 C 0,0 km/h (0 Bft) 100 %
09.10.2017 04:20 8,8 C 8,7 C 8,8 C 90 % 1019,1 hPa 0,0 l/m 0,0 km/h (0 Bft) W-NW 292 0 min 0,000 mm 0 W/m 7,3 C 8,8 C 1,6 km/h (1 Bft) 99 %
09.10.2017 04:30 8,8 C 8,8 C 8,8 C 90 % 1019,2 hPa 0,0 l/m 0,0 km/h (0 Bft) N 0 0 min 0,000 mm 0 W/m 7,3 C 8,8 C 0,0 km/h (0 Bft) 100 %
09.10.2017 04:40 8,8 C 8,8 C 8,8 C 90 % 1019,3 hPa 0,0 l/m 0,0 km/h (0 Bft) N 0 0 min 0,000 mm 0 W/m 7,3 C 8,8 C 0,0 km/h (0 Bft) 100 %
09.10.2017 04:50 8,9 C 8,8 C 8,9 C 90 % 1019,2 hPa 0,0 l/m 0,0 km/h (0 Bft) N 0 0 min 0,000 mm 0 W/m 7,4 C 8,9 C 0,0 km/h (0 Bft) 100 %
09.10.2017 05:00 8,9 C 8,9 C 8,9 C 90 % 1019,4 hPa 0,0 l/m 0,0 km/h (0 Bft) N 0 0 min 0,000 mm 0 W/m 7,4 C 8,9 C 0,0 km/h (0 Bft) 100 %
09.10.2017 05:10 8,8 C 8,8 C 8,9 C 90 % 1019,4 hPa 0,0 l/m 0,0 km/h (0 Bft) N 0 0 min 0,000 mm 0 W/m 7,3 C 8,8 C 0,0 km/h (0 Bft) 100 %
09.10.2017 05:20 8,8 C 8,8 C 8,8 C 90 % 1019,4 hPa 0,0 l/m 0,0 km/h (0 Bft) N 0 0 min 0,000 mm 0 W/m 7,3 C 8,8 C 0,0 km/h (0 Bft) 100 %
09.10.2017 05:30 8,7 C 8,7 C 8,8 C 90 % 1019,5 hPa 0,0 l/m 0,0 km/h (0 Bft) N 0 0 min 0,000 mm 0 W/m 7,2 C 8,7 C 0,0 km/h (0 Bft) 99 %
09.10.2017 05:40 8,7 C 8,7 C 8,7 C 90 % 1019,4 hPa 0,0 l/m 0,0 km/h (0 Bft) N 0 0 min 0,000 mm 0 W/m 7,2 C 8,7 C 0,0 km/h (0 Bft) 100 %
09.10.2017 05:50 8,7 C 8,7 C 8,7 C 90 % 1019,5 hPa 0,0 l/m 0,0 km/h (0 Bft) N 0 0 min 0,000 mm 0 W/m 7,2 C 8,7 C 0,0 km/h (0 Bft) 99 %
09.10.2017 06:00 8,7 C 8,7 C 8,7 C 90 % 1019,5 hPa 0,0 l/m 0,0 km/h (0 Bft) N 0 0 min 0,000 mm 0 W/m 7,2 C 8,7 C 0,0 km/h (0 Bft) 100 %
09.10.2017 06:10 8,7 C 8,7 C 8,7 C 90 % 1019,5 hPa 0,0 l/m 0,0 km/h (0 Bft) N 0 0 min 0,000 mm 0 W/m 7,2 C 8,7 C 0,0 km/h (0 Bft) 100 %
09.10.2017 06:20 8,6 C 8,6 C 8,7 C 90 % 1019,5 hPa 0,0 l/m 0,0 km/h (0 Bft) N 0 0 min 0,000 mm 0 W/m 7,1 C 8,6 C 0,0 km/h (0 Bft) 100 %
09.10.2017 06:30 8,6 C 8,6 C 8,6 C 90 % 1019,5 hPa 0,0 l/m 0,0 km/h (0 Bft) N 0 0 min 0,000 mm 0 W/m 7,1 C 8,6 C 0,0 km/h (0 Bft) 89 %
09.10.2017 06:40 8,5 C 8,5 C 8,6 C 90 % 1019,6 hPa 0,0 l/m 0,0 km/h (0 Bft) N 0 0 min 0,000 mm 0 W/m 7,0 C 8,5 C 0,0 km/h (0 Bft) 100 %
09.10.2017 06:50 8,5 C 8,5 C 8,6 C 90 % 1019,6 hPa 0,0 l/m 0,0 km/h (0 Bft) N 0 0 min 0,000 mm 0 W/m 7,0 C 8,5 C 0,0 km/h (0 Bft) 100 %
09.10.2017 07:00 8,5 C 8,5 C 8,5 C 90 % 1019,6 hPa 0,0 l/m 0,0 km/h (0 Bft) N 0 0 min 0,000 mm 0 W/m 7,0 C 8,5 C 0,0 km/h (0 Bft) 99 %
09.10.2017 07:10 8,5 C 8,5 C 8,5 C 90 % 1019,7 hPa 0,0 l/m 0,0 km/h (0 Bft) N 0 0 min 0,000 mm 0 W/m 7,0 C 8,5 C 0,0 km/h (0 Bft) 100 %
09.10.2017 07:20 8,5 C 8,5 C 8,6 C 90 % 1019,6 hPa 0,0 l/m 0,0 km/h (0 Bft) N 0 0 min 0,000 mm 0 W/m 7,0 C 8,5 C 0,0 km/h (0 Bft) 100 %
09.10.2017 07:30 8,5 C 8,5 C 8,5 C 90 % 1019,7 hPa 0,0 l/m 0,0 km/h (0 Bft) N 0 0 min 0,000 mm 0 W/m 7,0 C 8,5 C 0,0 km/h (0 Bft) 100 %
09.10.2017 07:40 8,5 C 8,4 C 8,5 C 90 % 1019,7 hPa 0,0 l/m 0,0 km/h (0 Bft) N 0 0 min 0,000 mm 0 W/m 7,0 C 8,5 C 0,0 km/h (0 Bft) 100 %
09.10.2017 07:50 8,5 C 8,4 C 8,5 C 90 % 1019,8 hPa 0,0 l/m 0,0 km/h (0 Bft) N 0 0 min 0,000 mm 9 W/m 7,0 C 8,5 C 0,0 km/h (0 Bft) 100 %
09.10.2017 08:00 8,5 C 8,5 C 8,5 C 90 % 1019,8 hPa 0,0 l/m 0,0 km/h (0 Bft) N 0 0 min 0,000 mm 12 W/m 7,0 C 8,5 C 0,0 km/h (0 Bft) 100 %
09.10.2017 08:10 8,5 C 8,5 C 8,5 C 90 % 1019,8 hPa 0,0 l/m 0,0 km/h (0 Bft) N 0 0 min 0,000 mm 19 W/m 7,0 C 8,5 C 0,0 km/h (0 Bft) 100 %
09.10.2017 08:20 8,6 C 8,5 C 8,6 C 90 % 1019,8 hPa 0,0 l/m 0,0 km/h (0 Bft) N 0 0 min 0,000 mm 25 W/m 7,1 C 8,6 C 0,0 km/h (0 Bft) 100 %
09.10.2017 08:30 8,6 C 8,6 C 8,6 C 90 % 1019,8 hPa 0,0 l/m 0,0 km/h (0 Bft) N 0 0 min 0,000 mm 32 W/m 7,1 C 8,6 C 0,0 km/h (0 Bft) 100 %
09.10.2017 08:40 8,6 C 8,6 C 8,6 C 90 % 1019,8 hPa 0,0 l/m 0,0 km/h (0 Bft) N 0 0 min 0,000 mm 51 W/m 7,1 C 8,6 C 0,0 km/h (0 Bft) 100 %
09.10.2017 08:50 8,8 C 8,6 C 8,8 C 91 % 1019,9 hPa 0,0 l/m 0,0 km/h (0 Bft) N 0 0 min 0,000 mm 54 W/m 7,4 C 8,8 C 0,0 km/h (0 Bft) 100 %
09.10.2017 09:00 8,9 C 8,8 C 8,9 C 91 % 1020,1 hPa 0,0 l/m 0,0 km/h (0 Bft) N 0 0 min 0,025 mm 60 W/m 7,5 C 8,9 C 0,0 km/h (0 Bft) 100 %
09.10.2017 09:10 8,9 C 8,9 C 8,9 C 91 % 1020,1 hPa 0,0 l/m 0,0 km/h (0 Bft) N 0 0 min 0,000 mm 76 W/m 7,5 C 8,9 C 0,0 km/h (0 Bft) 100 %
09.10.2017 09:20 9,1 C 8,9 C 9,1 C 90 % 1020,2 hPa 0,0 l/m 0,0 km/h (0 Bft) N 0 0 min 0,000 mm 98 W/m 7,5 C 9,1 C 0,0 km/h (0 Bft) 100 %
09.10.2017 09:30 9,0 C 9,0 C 9,1 C 90 % 1020,3 hPa 0,0 l/m 0,0 km/h (0 Bft) N 0 0 min 0,000 mm 113 W/m 7,4 C 9,0 C 0,0 km/h (0 Bft) 100 %
09.10.2017 09:40 9,2 C 9,0 C 9,2 C 91 % 1020,4 hPa 0,0 l/m 0,0 km/h (0 Bft) N 0 0 min 0,000 mm 132 W/m 7,8 C 9,2 C 0,0 km/h (0 Bft) 100 %
09.10.2017 09:50 9,5 C 9,2 C 9,5 C 91 % 1020,4 hPa 0,0 l/m 0,0 km/h (0 Bft) N 0 0 min 0,000 mm 149 W/m 8,1 C 9,5 C 0,0 km/h (0 Bft) 100 %
09.10.2017 10:00 9,7 C 9,6 C 9,7 C 91 % 1020,4 hPa 0,0 l/m 0,0 km/h (0 Bft) N 0 10 min 0,051 mm 160 W/m 8,3 C 9,7 C 0,0 km/h (0 Bft) 100 %
09.10.2017 10:10 9,8 C 9,7 C 9,8 C 90 % 1020,4 hPa 0,0 l/m 0,0 km/h (0 Bft) N 0 10 min 0,000 mm 192 W/m 8,2 C 9,8 C 0,0 km/h (0 Bft) 100 %
09.10.2017 10:20 9,9 C 9,8 C 9,9 C 91 % 1020,4 hPa 0,0 l/m 0,0 km/h (0 Bft) N 0 10 min 0,000 mm 269 W/m 8,5 C 9,9 C 0,0 km/h (0 Bft) 100 %
09.10.2017 10:30 10,1 C 9,9 C 10,1 C 90 % 1020,4 hPa 0,0 l/m 0,0 km/h (0 Bft) N 0 10 min 0,000 mm 316 W/m 8,5 C 10,1 C 0,0 km/h (0 Bft) 100 %
09.10.2017 10:40 10,5 C 10,2 C 10,5 C 90 % 1020,5 hPa 0,0 l/m 0,0 km/h (0 Bft) N 0 10 min 0,000 mm 306 W/m 8,9 C 10,5 C 0,0 km/h (0 Bft) 100 %
09.10.2017 10:50 11,1 C 10,5 C 11,1 C 90 % 1020,5 hPa 0,0 l/m 0,0 km/h (0 Bft) N 0 10 min 0,000 mm 376 W/m 9,5 C 11,1 C 0,0 km/h (0 Bft) 100 %
09.10.2017 11:00 11,1 C 11,1 C 11,2 C 90 % 1020,6 hPa 0,0 l/m 0,0 km/h (0 Bft) N 0 10 min 0,127 mm 381 W/m 9,5 C 11,1 C 0,0 km/h (0 Bft) 100 %
09.10.2017 11:10 11,3 C 11,1 C 11,3 C 90 % 1020,5 hPa 0,0 l/m 0,0 km/h (0 Bft) N 0 10 min 0,000 mm 271 W/m 9,7 C 11,3 C 0,0 km/h (0 Bft) 100 %
09.10.2017 11:20 11,4 C 11,3 C 11,4 C 90 % 1020,6 hPa 0,0 l/m 0,0 km/h (0 Bft) N 0 10 min 0,000 mm 262 W/m 9,8 C 11,4 C 0,0 km/h (0 Bft) 100 %
09.10.2017 11:30 11,4 C 11,4 C 11,4 C 88 % 1020,5 hPa 0,0 l/m 0,0 km/h (0 Bft) N 0 10 min 0,000 mm 250 W/m 9,5 C 11,4 C 0,0 km/h (0 Bft) 100 %
09.10.2017 11:50 11,7 C 11,4 C 11,7 C 88 % 1020,4 hPa 0,0 l/m 0,0 km/h (0 Bft) W-SW 242 20 min 0,000 mm 445 W/m 9,8 C 11,7 C 0,0 km/h (0 Bft) 100 %
09.10.2017 12:00 12,1 C 11,7 C 12,1 C 85 % 1020,5 hPa 0,0 l/m 0,0 km/h (0 Bft) W 259 10 min 0,127 mm 330 W/m 9,7 C 12,1 C 0,0 km/h (0 Bft) 100 %
09.10.2017 12:10 12,2 C 12,1 C 12,2 C 84 % 1020,5 hPa 0,0 l/m 0,0 km/h (0 Bft) SW 221 10 min 0,000 mm 306 W/m 9,6 C 12,2 C 0,0 km/h (0 Bft) 100 %
09.10.2017 12:20 12,3 C 12,2 C 12,3 C 85 % 1020,5 hPa 0,0 l/m 0,0 km/h (0 Bft) W-SW 248 10 min 0,000 mm 248 W/m 9,9 C 12,3 C 0,0 km/h (0 Bft) 100 %
09.10.2017 12:30 12,4 C 12,3 C 12,4 C 83 % 1020,6 hPa 0,0 l/m 0,9 km/h (0 Bft) W 273 10 min 0,000 mm 325 W/m 9,6 C 12,4 C 8,0 km/h (2 Bft) 99 %
09.10.2017 12:40 12,8 C 12,4 C 12,8 C 84 % 1020,5 hPa 0,0 l/m 2,8 km/h (1 Bft) W-SW 251 10 min 0,000 mm 276 W/m 10,2 C 12,8 C 9,7 km/h (2 Bft) 93 %
09.10.2017 12:50 13,0 C 12,8 C 13,0 C 83 % 1020,5 hPa 0,0 l/m 3,5 km/h (1 Bft) W-NW 300 10 min 0,000 mm 316 W/m 10,2 C 13,0 C 11,3 km/h (2 Bft) 100 %
09.10.2017 13:00 13,2 C 13,0 C 13,2 C 80 % 1020,4 hPa 0,0 l/m 5,2 km/h (1 Bft) NW 309 10 min 0,000 mm 343 W/m 9,8 C 13,2 C 9,7 km/h (2 Bft) 100 %
09.10.2017 13:10 13,3 C 13,2 C 13,3 C 80 % 1020,4 hPa 0,0 l/m 6,7 km/h (2 Bft) S-SW 209 10 min 0,178 mm 436 W/m 9,9 C 13,1 C 16,1 km/h (3 Bft) 100 %
09.10.2017 13:20 13,3 C 13,2 C 13,3 C 77 % 1020,3 hPa 0,0 l/m 5,5 km/h (1 Bft) W-SW 256 10 min 0,000 mm 332 W/m 9,4 C 13,3 C 16,1 km/h (3 Bft) 100 %
09.10.2017 13:30 13,3 C 13,3 C 13,3 C 79 % 1020,2 hPa 0,0 l/m 4,1 km/h (1 Bft) W-SW 249 10 min 0,000 mm 265 W/m 9,7 C 13,3 C 12,9 km/h (3 Bft) 100 %
09.10.2017 13:40 13,4 C 13,3 C 13,4 C 78 % 1020,1 hPa 0,0 l/m 5,2 km/h (1 Bft) W-NW 302 10 min 0,000 mm 243 W/m 9,6 C 13,4 C 11,3 km/h (2 Bft) 99 %
09.10.2017 13:50 13,6 C 13,4 C 13,6 C 77 % 1019,9 hPa 0,0 l/m 3,6 km/h (1 Bft) W-NW 301 10 min 0,000 mm 406 W/m 9,6 C 13,6 C 9,7 km/h (2 Bft) 100 %
09.10.2017 14:00 13,8 C 13,6 C 13,8 C 77 % 1019,9 hPa 0,0 l/m 4,8 km/h (1 Bft) W-NW 298 10 min 0,000 mm 251 W/m 9,8 C 13,8 C 9,7 km/h (2 Bft) 100 %
09.10.2017 14:10 13,7 C 13,7 C 13,8 C 77 % 1019,7 hPa 0,0 l/m 2,8 km/h (1 Bft) S-SW 213 10 min 0,178 mm 304 W/m 9,7 C 13,7 C 11,3 km/h (2 Bft) 99 %
09.10.2017 14:20 13,7 C 13,7 C 13,8 C 77 % 1019,6 hPa 0,0 l/m 5,3 km/h (1 Bft) W-NW 284 10 min 0,000 mm 306 W/m 9,7 C 13,7 C 14,5 km/h (3 Bft) 99 %
09.10.2017 14:30 13,8 C 13,7 C 13,8 C 78 % 1019,6 hPa 0,0 l/m 4,0 km/h (1 Bft) W-SW 250 10 min 0,000 mm 251 W/m 10,0 C 13,8 C 11,3 km/h (2 Bft) 100 %
09.10.2017 14:40 13,8 C 13,8 C 13,9 C 76 % 1019,6 hPa 0,0 l/m 5,3 km/h (1 Bft) W-NW 295 10 min 0,000 mm 199 W/m 9,6 C 13,8 C 12,9 km/h (3 Bft) 100 %
09.10.2017 14:50 13,7 C 13,7 C 13,9 C 76 % 1019,5 hPa 0,0 l/m 5,7 km/h (1 Bft) W-NW 300 10 min 0,000 mm 202 W/m 9,5 C 13,7 C 16,1 km/h (3 Bft) 100 %
09.10.2017 15:00 13,7 C 13,7 C 13,7 C 77 % 1019,5 hPa 0,0 l/m 4,8 km/h (1 Bft) W-SW 258 10 min 0,127 mm 207 W/m 9,7 C 13,7 C 11,3 km/h (2 Bft) 100 %
09.10.2017 15:10 13,7 C 13,6 C 13,7 C 77 % 1019,5 hPa 0,0 l/m 5,6 km/h (1 Bft) W 259 10 min 0,000 mm 230 W/m 9,7 C 13,7 C 16,1 km/h (3 Bft) 100 %
09.10.2017 15:20 13,7 C 13,7 C 13,7 C 77 % 1019,4 hPa 0,0 l/m 5,3 km/h (1 Bft) SW 233 10 min 0,000 mm 218 W/m 9,7 C 13,7 C 11,3 km/h (2 Bft) 100 %
09.10.2017 15:30 13,7 C 13,7 C 13,7 C 77 % 1019,3 hPa 0,0 l/m 4,6 km/h (1 Bft) SW 233 10 min 0,000 mm 214 W/m 9,7 C 13,7 C 14,5 km/h (3 Bft) 100 %
09.10.2017 15:40 13,7 C 13,7 C 13,7 C 75 % 1019,2 hPa 0,0 l/m 5,3 km/h (1 Bft) W 281 10 min 0,000 mm 183 W/m 9,3 C 13,7 C 11,3 km/h (2 Bft) 100 %
09.10.2017 15:50 13,7 C 13,7 C 13,7 C 77 % 1019,2 hPa 0,0 l/m 4,9 km/h (1 Bft) W 259 10 min 0,000 mm 153 W/m 9,7 C 13,7 C 11,3 km/h (2 Bft) 100 %
09.10.2017 16:00 13,6 C 13,6 C 13,7 C 78 % 1019,1 hPa 0,0 l/m 4,6 km/h (1 Bft) W 272 0 min 0,127 mm 135 W/m 9,8 C 13,6 C 9,7 km/h (2 Bft) 100 %
09.10.2017 16:10 13,5 C 13,5 C 13,6 C 78 % 1019,0 hPa 0,0 l/m 3,0 km/h (1 Bft) W-SW 249 0 min 0,000 mm 125 W/m 9,7 C 13,5 C 8,0 km/h (2 Bft) 100 %
09.10.2017 16:20 13,3 C 13,3 C 13,5 C 78 % 1019,0 hPa 0,0 l/m 6,5 km/h (2 Bft) W 260 0 min 0,000 mm 142 W/m 9,5 C 13,3 C 16,1 km/h (3 Bft) 99 %
09.10.2017 16:30 13,3 C 13,3 C 13,3 C 79 % 1019,0 hPa 0,0 l/m 4,1 km/h (1 Bft) W 262 0 min 0,000 mm 139 W/m 9,7 C 13,3 C 8,0 km/h (2 Bft) 100 %
09.10.2017 16:40 13,3 C 13,3 C 13,3 C 79 % 1019,0 hPa 0,0 l/m 6,6 km/h (2 Bft) W 259 0 min 0,000 mm 130 W/m 9,7 C 13,2 C 14,5 km/h (3 Bft) 100 %
09.10.2017 16:50 13,3 C 13,3 C 13,3 C 79 % 1018,9 hPa 0,0 l/m 5,2 km/h (1 Bft) W-SW 253 0 min 0,000 mm 100 W/m 9,7 C 13,3 C 11,3 km/h (2 Bft) 100 %
09.10.2017 17:00 13,2 C 13,2 C 13,3 C 79 % 1018,9 hPa 0,0 l/m 3,5 km/h (1 Bft) W 261 0 min 0,076 mm 81 W/m 9,6 C 13,2 C 12,9 km/h (3 Bft) 100 %
09.10.2017 17:10 13,1 C 13,1 C 13,2 C 78 % 1018,9 hPa 0,0 l/m 3,7 km/h (1 Bft) W-SW 256 0 min 0,000 mm 62 W/m 9,4 C 13,1 C 8,0 km/h (2 Bft) 100 %
09.10.2017 17:20 12,9 C 12,9 C 13,1 C 80 % 1018,9 hPa 0,0 l/m 3,3 km/h (1 Bft) W-SW 251 0 min 0,000 mm 47 W/m 9,5 C 12,9 C 9,7 km/h (2 Bft) 100 %
09.10.2017 17:30 12,7 C 12,7 C 12,9 C 80 % 1018,9 hPa 0,0 l/m 4,6 km/h (1 Bft) W-SW 254 0 min 0,000 mm 39 W/m 9,3 C 12,7 C 9,7 km/h (2 Bft) 100 %
09.10.2017 17:40 12,6 C 12,6 C 12,7 C 81 % 1018,8 hPa 0,0 l/m 2,0 km/h (1 Bft) W-SW 254 0 min 0,000 mm 26 W/m 9,4 C 12,6 C 6,4 km/h (2 Bft) 100 %
09.10.2017 17:50 12,5 C 12,5 C 12,6 C 81 % 1018,8 hPa 0,0 l/m 0,9 km/h (0 Bft) W-SW 254 0 min 0,000 mm 21 W/m 9,3 C 12,5 C 6,4 km/h (2 Bft) 100 %
09.10.2017 18:00 12,4 C 12,4 C 12,5 C 82 % 1018,7 hPa 0,0 l/m 0,3 km/h (0 Bft) W-SW 254 0 min 0,025 mm 19 W/m 9,4 C 12,4 C 3,2 km/h (1 Bft) 100 %
09.10.2017 18:10 12,3 C 12,3 C 12,4 C 84 % 1018,8 hPa 0,0 l/m 0,0 km/h (0 Bft) W-SW 254 0 min 0,000 mm 16 W/m 9,7 C 12,3 C 0,0 km/h (0 Bft) 91 %
09.10.2017 18:20 12,2 C 12,2 C 12,3 C 86 % 1018,8 hPa 0,0 l/m 0,0 km/h (0 Bft) W-SW 254 0 min 0,000 mm 14 W/m 9,9 C 12,2 C 0,0 km/h (0 Bft) 100 %
09.10.2017 18:30 11,9 C 11,9 C 12,2 C 86 % 1018,8 hPa 0,0 l/m 0,0 km/h (0 Bft) W-SW 254 0 min 0,000 mm 7 W/m 9,6 C 11,9 C 0,0 km/h (0 Bft) 100 %
09.10.2017 18:40 11,8 C 11,8 C 11,9 C 86 % 1018,9 hPa 0,0 l/m 0,0 km/h (0 Bft) W-SW 254 0 min 0,000 mm 0 W/m 9,5 C 11,8 C 0,0 km/h (0 Bft) 100 %
09.10.2017 18:50 11,6 C 11,6 C 11,8 C 87 % 1018,9 hPa 0,0 l/m 0,0 km/h (0 Bft) W-SW 254 0 min 0,000 mm 0 W/m 9,5 C 11,6 C 0,0 km/h (0 Bft) 100 %
09.10.2017 19:00 11,4 C 11,4 C 11,6 C 87 % 1018,9 hPa 0,0 l/m 0,0 km/h (0 Bft) W-SW 254 0 min 0,000 mm 0 W/m 9,3 C 11,4 C 1,6 km/h (1 Bft) 100 %
09.10.2017 19:10 11,3 C 11,3 C 11,4 C 88 % 1018,9 hPa 0,0 l/m 1,4 km/h (1 Bft) W-SW 252 0 min 0,000 mm 0 W/m 9,4 C 11,3 C 3,2 km/h (1 Bft) 100 %
09.10.2017 19:20 11,3 C 11,3 C 11,3 C 88 % 1018,9 hPa 0,0 l/m 1,8 km/h (1 Bft) W-SW 252 0 min 0,000 mm 0 W/m 9,4 C 11,3 C 3,2 km/h (1 Bft) 100 %
09.10.2017 19:30 11,3 C 11,3 C 11,3 C 88 % 1019,1 hPa 0,0 l/m 1,5 km/h (1 Bft) W-SW 253 0 min 0,000 mm 0 W/m 9,4 C 11,3 C 3,2 km/h (1 Bft) 99 %
09.10.2017 19:40 11,3 C 11,3 C 11,3 C 88 % 1019,0 hPa 0,0 l/m 1,9 km/h (1 Bft) W-SW 240 0 min 0,000 mm 0 W/m 9,4 C 11,3 C 4,8 km/h (1 Bft) 99 %
09.10.2017 19:50 11,3 C 11,3 C 11,3 C 88 % 1019,1 hPa 0,0 l/m 0,7 km/h (0 Bft) W-SW 240 0 min 0,000 mm 0 W/m 9,4 C 11,3 C 4,8 km/h (1 Bft) 99 %
09.10.2017 20:00 11,3 C 11,3 C 11,3 C 88 % 1019,1 hPa 0,0 l/m 0,2 km/h (0 Bft) W-SW 240 0 min 0,000 mm 0 W/m 9,4 C 11,3 C 1,6 km/h (1 Bft) 99 %
09.10.2017 20:10 11,2 C 11,2 C 11,3 C 88 % 1019,0 hPa 0,0 l/m 2,0 km/h (1 Bft) W-SW 240 0 min 0,000 mm 0 W/m 9,3 C 11,2 C 6,4 km/h (2 Bft) 100 %
09.10.2017 20:20 11,2 C 11,2 C 11,2 C 88 % 1018,9 hPa 0,0 l/m 2,3 km/h (1 Bft) W-SW 240 0 min 0,000 mm 0 W/m 9,3 C 11,2 C 4,8 km/h (1 Bft) 99 %
09.10.2017 20:30 11,2 C 11,1 C 11,2 C 88 % 1018,8 hPa 0,0 l/m 2,7 km/h (1 Bft) SW 227 0 min 0,000 mm 0 W/m 9,3 C 11,2 C 6,4 km/h (2 Bft) 100 %
09.10.2017 20:40 11,2 C 11,2 C 11,2 C 88 % 1018,8 hPa 0,0 l/m 3,7 km/h (1 Bft) S-SW 194 0 min 0,000 mm 0 W/m 9,3 C 11,2 C 6,4 km/h (2 Bft) 100 %
09.10.2017 20:50 11,3 C 11,2 C 11,3 C 88 % 1018,7 hPa 0,0 l/m 3,3 km/h (1 Bft) S 189 0 min 0,000 mm 0 W/m 9,4 C 11,3 C 6,4 km/h (2 Bft) 99 %
09.10.2017 21:00 11,3 C 11,3 C 11,3 C 88 % 1018,8 hPa 0,0 l/m 2,7 km/h (1 Bft) S 189 0 min 0,000 mm 0 W/m 9,4 C 11,3 C 6,4 km/h (2 Bft) 100 %
09.10.2017 21:10 11,2 C 11,2 C 11,3 C 88 % 1018,8 hPa 0,0 l/m 1,6 km/h (1 Bft) S 180 0 min 0,000 mm 0 W/m 9,3 C 11,2 C 4,8 km/h (1 Bft) 97 %
09.10.2017 21:20 11,2 C 11,1 C 11,2 C 88 % 1018,9 hPa 0,0 l/m 1,6 km/h (1 Bft) S 180 0 min 0,000 mm 0 W/m 9,3 C 11,2 C 4,8 km/h (1 Bft) 98 %
09.10.2017 21:30 11,1 C 11,1 C 11,2 C 89 % 1018,9 hPa 0,0 l/m 3,2 km/h (1 Bft) S 180 0 min 0,000 mm 0 W/m 9,4 C 11,1 C 8,0 km/h (2 Bft) 96 %
09.10.2017 21:40 10,9 C 10,9 C 11,1 C 88 % 1018,9 hPa 0,0 l/m 4,8 km/h (1 Bft) SW 225 0 min 0,000 mm 0 W/m 9,0 C 10,9 C 11,3 km/h (2 Bft) 98 %
09.10.2017 21:50 10,9 C 10,9 C 11,0 C 89 % 1018,9 hPa 0,0 l/m 4,8 km/h (1 Bft) SW 225 0 min 0,000 mm 0 W/m 9,2 C 10,9 C 9,7 km/h (2 Bft) 98 %
09.10.2017 22:00 10,8 C 10,8 C 10,9 C 89 % 1018,9 hPa 0,0 l/m 4,8 km/h (1 Bft) SW 225 0 min 0,000 mm 0 W/m 9,1 C 10,8 C 9,7 km/h (2 Bft) 97 %
09.10.2017 22:10 10,8 C 10,8 C 10,8 C 89 % 1019,0 hPa 0,0 l/m 4,8 km/h (1 Bft) S-SW 202 0 min 0,000 mm 0 W/m 9,1 C 10,8 C 9,7 km/h (2 Bft) 97 %
09.10.2017 22:20 10,7 C 10,7 C 10,8 C 89 % 1019,1 hPa 0,0 l/m 4,8 km/h (1 Bft) S-SW 202 0 min 0,000 mm 0 W/m 9,0 C 10,7 C 8,0 km/h (2 Bft) 97 %
09.10.2017 22:30 10,7 C 10,7 C 10,7 C 89 % 1019,0 hPa 0,0 l/m 4,8 km/h (1 Bft) S-SW 202 0 min 0,000 mm 0 W/m 9,0 C 10,7 C 12,9 km/h (3 Bft) 98 %
09.10.2017 22:40 10,6 C 10,6 C 10,7 C 89 % 1019,0 hPa 0,0 l/m 4,8 km/h (1 Bft) SW 225 0 min 0,000 mm 0 W/m 8,9 C 10,6 C 9,7 km/h (2 Bft) 97 %
09.10.2017 22:50 10,6 C 10,6 C 10,6 C 89 % 1018,9 hPa 0,0 l/m 3,2 km/h (1 Bft) SW 225 0 min 0,000 mm 0 W/m 8,9 C 10,6 C 8,0 km/h (2 Bft) 98 %
09.10.2017 23:00 10,5 C 10,4 C 10,6 C 90 % 1018,9 hPa 0,0 l/m 4,8 km/h (1 Bft) SW 225 0 min 0,000 mm 0 W/m 8,9 C 10,5 C 9,7 km/h (2 Bft) 98 %
09.10.2017 23:10 10,5 C 10,5 C 10,5 C 90 % 1018,9 hPa 0,0 l/m 3,2 km/h (1 Bft) SW 225 0 min 0,000 mm 0 W/m 8,9 C 10,5 C 9,7 km/h (2 Bft) 94 %
09.10.2017 23:20 10,6 C 10,5 C 10,6 C 90 % 1018,9 hPa 0,0 l/m 6,4 km/h (2 Bft) SW 225 0 min 0,000 mm 0 W/m 9,0 C 10,6 C 11,3 km/h (2 Bft) 92 %
09.10.2017 23:30 10,6 C 10,6 C 10,6 C 90 % 1018,9 hPa 0,0 l/m 6,4 km/h (2 Bft) SW 225 0 min 0,000 mm 0 W/m 9,0 C 10,6 C 17,7 km/h (3 Bft) 97 %
09.10.2017 23:40 10,7 C 10,6 C 10,7 C 90 % 1019,0 hPa 0,0 l/m 4,8 km/h (1 Bft) W-SW 247 0 min 0,000 mm 0 W/m 9,1 C 10,7 C 14,5 km/h (3 Bft) 100 %
09.10.2017 23:50 10,7 C 10,7 C 10,7 C 90 % 1018,9 hPa 0,0 l/m 4,8 km/h (1 Bft) SW 225 0 min 0,000 mm 0 W/m 9,1 C 10,7 C 9,7 km/h (2 Bft) 99 %
_ Min-Zeit 07:40 07:40 07:00 15:40 18:00 - 00:00 - - - - - 06:40 06:40 00:00 00:30
Minimum _ 8,4 C 8,4 C 8,5 C 75 % 1018,7 hPa - 0,0 km/h (0 Bft) - - - - - 7,0 C 8,5 C 0,0 km/h (0 Bft) 89 %
_ Max-Zeit 14:40 14:40 14:40 08:50 11:00 04:10 13:10 - - 11:50 13:10 11:50 12:50 14:00 23:30 00:10
Maximum _ 13,9 C 13,8 C 13,9 C 91 % 1020,6 hPa 0,2 l/m 6,7 km/h
S-SW (2 Bft)
- - 20 min 0,178 mm 445 W/m 10,2 C 13,8 C 17,7 km/h
W-SW (3 Bft)
100 %
Durchschnitt _ 10,8 C 10,8 C 10,9 C 87 % 1019,4 hPa #0,2 l/m 1,8 km/h (1 Bft) W-SW - #6:00 h #1,041 mm 183 W/m 8,7 C 10,8 C 4,8 km/h (1 Bft) 99 %
PRIVATE WETTERSTATION BILLIGHEIM-ALLFELD - www.neckar-odenwald-wetter.de - Holger Sonntag